createdAt,value
2019-03-21T00:02:01.733Z,101788.83
2019-03-21T00:04:37.261Z,101791.61
2019-03-21T00:07:12.719Z,101792.70
2019-03-21T00:11:51.947Z,101792.83
2019-03-21T00:14:47.420Z,101788.11
2019-03-21T00:17:26.887Z,101787.03
2019-03-21T00:20:01.806Z,101790.94
2019-03-21T00:22:38.221Z,101794.06
2019-03-21T00:25:16.286Z,101801.26
2019-03-21T00:27:50.816Z,101806.55
2019-03-21T00:30:26.111Z,101803.94
2019-03-21T00:33:01.360Z,101800.00
2019-03-21T00:35:41.530Z,101808.23
2019-03-21T00:38:16.371Z,101807.35
2019-03-21T00:40:51.044Z,101806.52
2019-03-21T00:43:25.553Z,101799.32
2019-03-21T00:46:01.441Z,101803.13
2019-03-21T00:48:36.514Z,101799.42
2019-03-21T00:51:11.645Z,101794.64
2019-03-21T00:53:47.557Z,101796.23
2019-03-21T00:56:23.865Z,101794.12
2019-03-21T00:58:58.659Z,101795.81
2019-03-21T01:01:33.772Z,101798.11
2019-03-21T01:04:08.939Z,101798.19
2019-03-21T01:06:44.115Z,101797.36
2019-03-21T01:09:19.279Z,101795.25
2019-03-21T01:11:54.651Z,101790.61
2019-03-21T01:14:30.174Z,101787.94
2019-03-21T01:17:05.764Z,101789.67
2019-03-21T01:19:40.904Z,101790.81
2019-03-21T01:22:17.633Z,101786.05
2019-03-21T01:24:54.355Z,101784.53
2019-03-21T01:27:29.749Z,101783.03
2019-03-21T01:30:07.106Z,101784.22
2019-03-21T01:32:41.706Z,101778.18
2019-03-21T01:35:16.403Z,101772.50
2019-03-21T01:37:52.863Z,101773.55
2019-03-21T01:40:28.881Z,101778.01
2019-03-21T01:43:03.545Z,101780.05
2019-03-21T01:45:38.645Z,101777.33
2019-03-21T01:48:13.537Z,101779.28
2019-03-21T01:50:48.120Z,101781.90
2019-03-21T01:53:23.417Z,101778.20
2019-03-21T01:55:58.179Z,101774.91
2019-03-21T01:58:33.282Z,101771.88
2019-03-21T02:01:08.955Z,101767.53
2019-03-21T02:03:43.705Z,101765.72
2019-03-21T02:06:18.775Z,101765.30
2019-03-21T02:08:53.785Z,101763.95
2019-03-21T02:11:28.345Z,101765.34
2019-03-21T02:14:03.519Z,101765.37
2019-03-21T02:16:38.853Z,101762.91
2019-03-21T02:19:13.545Z,101758.57
2019-03-21T02:21:48.135Z,101759.89
2019-03-21T02:24:23.623Z,101757.38
2019-03-21T02:26:58.395Z,101756.48
2019-03-21T02:33:04.787Z,101744.89
2019-03-21T02:35:39.678Z,101748.53
2019-03-21T02:38:14.674Z,101744.85
2019-03-21T02:40:50.093Z,101741.25
2019-03-21T02:43:25.139Z,101739.78
2019-03-21T02:45:59.768Z,101743.43
2019-03-21T02:48:34.408Z,101743.78
2019-03-21T02:51:09.781Z,101746.06
2019-03-21T02:53:44.847Z,101741.44
2019-03-21T02:56:20.736Z,101743.42
2019-03-21T02:58:55.901Z,101741.19
2019-03-21T03:01:30.983Z,101742.28
2019-03-21T03:04:05.641Z,101747.70
2019-03-21T03:06:40.703Z,101748.14
2019-03-21T03:09:16.345Z,101756.00
2019-03-21T03:11:51.400Z,101756.34
2019-03-21T03:14:26.240Z,101761.42
2019-03-21T03:17:01.137Z,101754.71
2019-03-21T03:19:36.335Z,101755.00
2019-03-21T03:22:10.867Z,101755.51
2019-03-21T03:24:46.003Z,101758.09
2019-03-21T03:27:20.479Z,101761.34
2019-03-21T03:29:54.961Z,101757.78
2019-03-21T03:32:29.968Z,101757.33
2019-03-21T03:35:05.065Z,101757.20
2019-03-21T03:37:39.656Z,101759.02
2019-03-21T03:40:20.800Z,101761.55
2019-03-21T03:42:56.363Z,101760.05
2019-03-21T03:45:38.124Z,101765.55
2019-03-21T03:48:13.257Z,101768.49
2019-03-21T03:50:48.523Z,101766.24
2019-03-21T03:53:25.051Z,101765.85
2019-03-21T03:56:00.142Z,101760.89
2019-03-21T03:58:37.575Z,101764.72
2019-03-21T04:01:12.248Z,101765.81
2019-03-21T04:03:47.622Z,101764.67
2019-03-21T04:06:22.836Z,101767.38
2019-03-21T04:08:57.734Z,101771.36
2019-03-21T04:11:32.663Z,101776.50
2019-03-21T04:14:07.437Z,101771.79
2019-03-21T04:16:43.339Z,101772.61
2019-03-21T04:19:17.930Z,101778.78
2019-03-21T04:21:52.580Z,101780.43
2019-03-21T04:24:29.083Z,101778.30
2019-03-21T04:27:03.467Z,101776.89
2019-03-21T04:29:38.548Z,101778.41
2019-03-21T04:32:17.758Z,101778.08
2019-03-21T04:34:53.136Z,101773.55
2019-03-21T04:37:28.058Z,101777.84
2019-03-21T04:40:03.622Z,101777.03
2019-03-21T04:42:38.296Z,101777.00
2019-03-21T04:45:18.430Z,101774.98
2019-03-21T04:47:53.263Z,101774.17
2019-03-21T04:50:28.706Z,101776.77
2019-03-21T04:53:03.728Z,101774.47
2019-03-21T04:55:38.590Z,101771.59
2019-03-21T04:58:13.315Z,101772.15
2019-03-21T05:00:48.638Z,101771.09
2019-03-21T05:03:23.095Z,101772.42
2019-03-21T05:05:58.244Z,101769.39
2019-03-21T05:08:35.928Z,101773.77
2019-03-21T05:11:11.302Z,101773.76
2019-03-21T05:13:46.793Z,101775.96
2019-03-21T05:16:21.958Z,101783.45
2019-03-21T05:18:57.791Z,101779.22
2019-03-21T05:21:33.217Z,101778.81
2019-03-21T05:24:08.644Z,101784.09
2019-03-21T05:26:43.662Z,101785.36
2019-03-21T05:29:18.658Z,101780.84
2019-03-21T05:31:53.387Z,101783.39
2019-03-21T05:34:28.406Z,101784.91
2019-03-21T05:37:05.527Z,101784.56
2019-03-21T05:39:40.215Z,101788.40
2019-03-21T05:42:21.857Z,101794.09
2019-03-21T05:44:59.938Z,101795.07
2019-03-21T05:47:37.595Z,101798.14
2019-03-21T05:50:15.112Z,101804.48
2019-03-21T05:52:49.733Z,101806.67
2019-03-21T05:55:28.524Z,101800.95
2019-03-21T05:58:03.289Z,101802.71
2019-03-21T06:00:43.954Z,101801.64
2019-03-21T06:03:27.914Z,101804.86
2019-03-21T06:06:17.064Z,101803.02
2019-03-21T06:08:52.451Z,101807.20
2019-03-21T06:11:27.586Z,101813.37
2019-03-21T06:14:06.236Z,101811.44
2019-03-21T06:16:45.293Z,101813.92
2019-03-21T06:19:53.077Z,101818.83
2019-03-21T06:23:07.330Z,101816.20
2019-03-21T06:26:11.841Z,101820.44
2019-03-21T06:28:46.550Z,101819.53
2019-03-21T06:31:21.162Z,101821.95
2019-03-21T06:33:55.973Z,101818.09
2019-03-21T06:36:31.110Z,101810.48
2019-03-21T06:39:08.494Z,101809.42
2019-03-21T06:41:43.706Z,101811.58
2019-03-21T06:44:18.214Z,101809.84
2019-03-21T06:46:54.220Z,101812.52
2019-03-21T06:49:30.425Z,101815.68
2019-03-21T06:52:05.151Z,101819.10
2019-03-21T06:54:40.030Z,101824.95
2019-03-21T06:57:15.180Z,101821.80
2019-03-21T06:59:49.820Z,101823.63
2019-03-21T07:02:25.788Z,101823.20
2019-03-21T07:05:00.686Z,101828.66
2019-03-21T07:07:35.872Z,101830.45
2019-03-21T07:10:13.717Z,101827.22
2019-03-21T07:12:48.600Z,101818.98
2019-03-21T07:15:23.277Z,101814.13
2019-03-21T07:17:58.269Z,101813.99
2019-03-21T07:20:33.174Z,101815.19
2019-03-21T07:23:09.132Z,101808.48
2019-03-21T07:25:47.454Z,101812.48
2019-03-21T07:28:23.841Z,101817.47
2019-03-21T07:31:00.926Z,101817.96
2019-03-21T07:33:37.714Z,101819.73
2019-03-21T07:36:13.182Z,101818.66
2019-03-21T07:38:47.970Z,101815.20
2019-03-21T07:41:23.624Z,101813.69
2019-03-21T07:43:58.463Z,101817.42
2019-03-21T07:46:33.727Z,101814.88
2019-03-21T07:49:08.871Z,101813.02
2019-03-21T07:51:46.035Z,101809.57
2019-03-21T07:54:21.528Z,101815.64
2019-03-21T07:56:56.079Z,101811.76
2019-03-21T07:59:31.429Z,101811.77
2019-03-21T08:02:06.719Z,101812.89
2019-03-21T08:04:41.981Z,101807.16
2019-03-21T08:07:17.915Z,101809.23
2019-03-21T08:09:52.907Z,101805.41
2019-03-21T08:12:27.623Z,101805.38
2019-03-21T08:15:07.534Z,101797.84
2019-03-21T08:17:42.187Z,101800.91
2019-03-21T08:20:18.100Z,101801.02
2019-03-21T08:22:56.647Z,101802.48
2019-03-21T08:25:31.584Z,101799.94
2019-03-21T08:28:06.823Z,101796.66
2019-03-21T08:31:15.861Z,101795.23
2019-03-21T08:33:50.878Z,101796.97
2019-03-21T08:36:26.910Z,101795.11
2019-03-21T08:39:07.723Z,101800.86
2019-03-21T08:41:43.214Z,101789.06
2019-03-21T08:44:19.767Z,101798.19
2019-03-21T08:46:57.458Z,101797.00
2019-03-21T08:49:32.911Z,101797.38
2019-03-21T08:52:08.456Z,101796.63
2019-03-21T08:54:43.215Z,101795.97
2019-03-21T08:57:18.623Z,101794.94
2019-03-21T08:59:55.485Z,101800.30
2019-03-21T09:02:42.126Z,101798.09
2019-03-21T09:05:18.440Z,101799.27
2019-03-21T09:07:59.430Z,101798.59
2019-03-21T09:10:36.051Z,101800.33
2019-03-21T09:13:12.661Z,101805.68
2019-03-21T09:15:49.420Z,101805.48
2019-03-21T09:18:28.538Z,101803.03
2019-03-21T09:21:18.888Z,101797.63
2019-03-21T09:23:56.602Z,101798.41
2019-03-21T09:26:31.681Z,101797.16
2019-03-21T09:29:07.015Z,101793.93
2019-03-21T09:31:42.473Z,101797.96
2019-03-21T09:34:17.755Z,101796.97
2019-03-21T09:36:53.761Z,101802.95
2019-03-21T09:39:30.266Z,101804.36
2019-03-21T09:42:05.242Z,101799.03
2019-03-21T09:44:40.029Z,101794.63
2019-03-21T09:47:19.580Z,101794.77
2019-03-21T09:49:55.947Z,101794.59
2019-03-21T09:52:33.941Z,101792.98
2019-03-21T09:55:10.155Z,101793.42
2019-03-21T09:57:49.144Z,101793.64
2019-03-21T10:00:34.303Z,101789.22
2019-03-21T10:03:10.970Z,101788.92
2019-03-21T10:05:46.652Z,101787.61
2019-03-21T10:08:23.900Z,101786.03
2019-03-21T10:11:01.768Z,101788.26
2019-03-21T10:13:37.674Z,101789.05
2019-03-21T10:16:14.907Z,101784.41
2019-03-21T10:18:53.639Z,101785.50
2019-03-21T10:21:42.746Z,101780.00
2019-03-21T10:24:22.494Z,101784.03
2019-03-21T10:27:02.140Z,101781.02
2019-03-21T10:29:38.184Z,101779.40
2019-03-21T10:32:16.006Z,101774.76
2019-03-21T10:34:51.266Z,101774.86
2019-03-21T10:37:27.770Z,101778.94
2019-03-21T10:40:03.945Z,101774.29
2019-03-21T10:42:44.850Z,101773.25
2019-03-21T10:45:20.765Z,101775.41
2019-03-21T10:48:00.014Z,101774.64
2019-03-21T10:50:38.093Z,101774.12
2019-03-21T10:53:15.478Z,101770.05
2019-03-21T10:55:54.569Z,101769.27
2019-03-21T10:58:29.393Z,101768.08
2019-03-21T11:01:04.510Z,101767.17
2019-03-21T11:03:41.530Z,101765.94
2019-03-21T11:06:22.591Z,101764.52
2019-03-21T11:09:00.612Z,101761.64
2019-03-21T11:11:38.420Z,101757.74
2019-03-21T11:14:15.854Z,101759.05
2019-03-21T11:16:53.166Z,101754.19
2019-03-21T11:19:28.272Z,101752.95
2019-03-21T11:22:11.357Z,101755.53
2019-03-21T11:24:47.189Z,101752.23
2019-03-21T11:27:26.365Z,101753.41
2019-03-21T11:30:15.438Z,101744.63
2019-03-21T11:32:51.558Z,101743.73
2019-03-21T11:35:29.172Z,101738.72
2019-03-21T11:38:07.270Z,101732.31
2019-03-21T11:41:14.393Z,101734.00
2019-03-21T11:43:55.332Z,101723.70
2019-03-21T11:46:42.291Z,101721.45
2019-03-21T11:49:20.285Z,101722.98
2019-03-21T11:52:17.506Z,101716.96
2019-03-21T11:54:53.600Z,101715.56
2019-03-21T11:57:31.451Z,101720.27
2019-03-21T12:00:17.493Z,101717.67
2019-03-21T12:02:52.334Z,101717.28
2019-03-21T12:05:28.130Z,101711.51
2019-03-21T12:08:04.553Z,101705.64
2019-03-21T12:10:39.959Z,101701.36
2019-03-21T12:13:20.933Z,101699.55
2019-03-21T12:15:57.641Z,101703.55
2019-03-21T12:18:34.361Z,101697.44
2019-03-21T12:21:09.692Z,101693.97
2019-03-21T12:23:47.260Z,101690.63
2019-03-21T12:26:22.465Z,101686.56
2019-03-21T12:29:02.509Z,101677.74
2019-03-21T12:31:41.502Z,101676.72
2019-03-21T12:34:20.670Z,101676.09
2019-03-21T12:37:00.542Z,101673.20
2019-03-21T12:39:36.672Z,101670.16
2019-03-21T12:42:14.081Z,101669.00
2019-03-21T12:44:50.798Z,101663.86
2019-03-21T12:47:31.725Z,101657.55
2019-03-21T12:50:10.994Z,101661.90
2019-03-21T12:52:48.160Z,101656.47
2019-03-21T12:55:23.405Z,101658.34
2019-03-21T12:58:01.377Z,101662.41
2019-03-21T13:00:46.522Z,101659.00
2019-03-21T13:03:22.132Z,101654.86
2019-03-21T13:05:58.762Z,101655.83
2019-03-21T13:08:37.476Z,101656.08
2019-03-21T13:11:12.993Z,101651.64
2019-03-21T13:13:48.317Z,101649.63
2019-03-21T13:16:23.982Z,101644.29
2019-03-21T13:19:01.079Z,101640.63
2019-03-21T13:21:36.642Z,101640.80
2019-03-21T13:24:11.474Z,101633.70
2019-03-21T13:26:46.751Z,101630.86
2019-03-21T13:29:25.236Z,101626.87
2019-03-21T13:32:09.802Z,101625.81
2019-03-21T13:34:46.270Z,101622.92
2019-03-21T13:37:21.591Z,101621.20
2019-03-21T13:39:57.150Z,101620.27
2019-03-21T13:42:32.143Z,101621.10
2019-03-21T13:45:12.260Z,101624.53
2019-03-21T13:47:48.056Z,101614.53
2019-03-21T13:50:26.231Z,101612.73
2019-03-21T13:53:05.241Z,101609.03
2019-03-21T13:55:48.991Z,101602.18
2019-03-21T13:58:23.563Z,101601.72
2019-03-21T14:00:58.771Z,101597.55
2019-03-21T14:03:33.528Z,101594.80
2019-03-21T14:06:09.993Z,101588.63
2019-03-21T14:08:46.223Z,101586.08
2019-03-21T14:11:25.312Z,101580.70
2019-03-21T14:14:00.753Z,101583.55
2019-03-21T14:16:40.409Z,101586.14
2019-03-21T14:19:17.040Z,101579.34
2019-03-21T14:21:52.140Z,101569.36
2019-03-21T14:24:29.597Z,101574.62
2019-03-21T14:27:05.648Z,101569.12
2019-03-21T14:29:41.604Z,101569.20
2019-03-21T14:32:16.708Z,101564.88
2019-03-21T14:34:52.591Z,101561.88
2019-03-21T14:37:27.799Z,101566.62
2019-03-21T14:40:09.611Z,101563.42
2019-03-21T14:42:45.839Z,101556.66
2019-03-21T14:45:21.906Z,101561.27
2019-03-21T14:47:57.075Z,101553.69
2019-03-21T14:50:32.036Z,101555.86
2019-03-21T14:53:07.656Z,101556.45
2019-03-21T14:55:47.621Z,101564.49
2019-03-21T14:58:23.832Z,101556.97
2019-03-21T15:00:59.962Z,101561.52
2019-03-21T15:03:40.174Z,101553.78
2019-03-21T15:06:14.645Z,101550.80
2019-03-21T15:08:50.415Z,101550.75
2019-03-21T15:11:25.229Z,101551.17
2019-03-21T15:14:00.176Z,101544.64
2019-03-21T15:16:35.263Z,101539.56
2019-03-21T15:19:10.054Z,101537.80
2019-03-21T15:21:45.932Z,101533.80
2019-03-21T15:24:20.805Z,101533.42
2019-03-21T15:26:55.671Z,101533.98
2019-03-21T15:29:32.340Z,101532.96
2019-03-21T15:32:07.169Z,101535.98
2019-03-21T15:34:41.793Z,101533.45
2019-03-21T15:37:19.630Z,101532.23
2019-03-21T15:39:54.920Z,101526.45
2019-03-21T15:42:31.237Z,101521.08
2019-03-21T15:45:22.252Z,101520.60
2019-03-21T15:47:58.844Z,101516.25
2019-03-21T15:50:38.370Z,101515.41
2019-03-21T15:53:13.132Z,101514.22
2019-03-21T15:55:50.285Z,101521.94
2019-03-21T15:58:24.936Z,101512.93
2019-03-21T16:01:02.036Z,101520.95
2019-03-21T16:03:40.349Z,101518.55
2019-03-21T16:06:16.436Z,101513.89
2019-03-21T16:08:52.798Z,101512.45
2019-03-21T16:11:33.414Z,101508.20
2019-03-21T16:14:21.449Z,101508.81
2019-03-21T16:16:58.512Z,101513.58
2019-03-21T16:19:38.080Z,101509.58
2019-03-21T16:22:14.646Z,101509.28
2019-03-21T16:24:49.726Z,101505.22
2019-03-21T16:27:24.715Z,101504.53
2019-03-21T16:30:04.154Z,101506.31
2019-03-21T16:32:39.020Z,101502.97
2019-03-21T16:35:17.580Z,101502.46
2019-03-21T16:37:54.538Z,101502.28
2019-03-21T16:40:40.138Z,101497.56
2019-03-21T16:43:15.341Z,101503.52
2019-03-21T16:45:53.847Z,101505.33
2019-03-21T16:48:31.690Z,101504.85
2019-03-21T16:51:09.197Z,101507.17
2019-03-21T16:53:45.949Z,101507.29
2019-03-21T16:56:20.843Z,101508.16
2019-03-21T16:58:58.849Z,101508.00
2019-03-21T17:01:34.551Z,101506.20
2019-03-21T17:04:11.379Z,101498.95
2019-03-21T17:06:49.847Z,101500.01
2019-03-21T17:09:26.007Z,101494.75
2019-03-21T17:12:03.947Z,101504.61
2019-03-21T17:14:39.029Z,101503.17
2019-03-21T17:17:14.939Z,101504.53
2019-03-21T17:19:49.686Z,101506.56
2019-03-21T17:22:25.767Z,101507.96
2019-03-21T17:25:01.355Z,101509.96
2019-03-21T17:27:36.664Z,101510.57
2019-03-21T17:30:15.622Z,101507.80
2019-03-21T17:32:54.385Z,101507.41
2019-03-21T17:35:29.138Z,101512.85
2019-03-21T17:38:07.988Z,101520.16
2019-03-21T17:40:45.467Z,101518.34
2019-03-21T17:43:20.935Z,101521.69
2019-03-21T17:45:58.907Z,101519.70
2019-03-21T17:48:39.303Z,101519.13
2019-03-21T17:51:14.146Z,101512.83
2019-03-21T17:53:48.966Z,101511.45
2019-03-21T17:56:24.467Z,101508.41
2019-03-21T17:59:01.081Z,101515.08
2019-03-21T18:01:38.443Z,101522.55
2019-03-21T18:04:14.982Z,101520.99
2019-03-21T18:06:53.488Z,101527.87
2019-03-21T18:09:28.288Z,101537.67
2019-03-21T18:12:05.276Z,101535.44
2019-03-21T18:14:41.652Z,101538.16
2019-03-21T18:17:19.669Z,101542.47
2019-03-21T18:19:54.908Z,101537.22
2019-03-21T18:22:33.922Z,101541.72
2019-03-21T18:25:16.150Z,101545.44
2019-03-21T18:27:50.933Z,101548.09
2019-03-21T18:30:26.252Z,101537.61
2019-03-21T18:33:01.623Z,101543.23
2019-03-21T18:35:39.632Z,101549.91
2019-03-21T18:38:16.692Z,101553.67
2019-03-21T18:40:52.297Z,101558.72
2019-03-21T18:43:30.174Z,101558.23
2019-03-21T18:46:04.890Z,101551.80
2019-03-21T18:48:40.210Z,101549.83
2019-03-21T18:51:15.676Z,101554.11
2019-03-21T18:53:50.444Z,101553.44
2019-03-21T18:56:27.574Z,101558.12
2019-03-21T18:59:03.250Z,101555.36
2019-03-21T19:01:38.363Z,101556.80
2019-03-21T19:04:14.719Z,101555.17
2019-03-21T19:06:52.791Z,101557.75
2019-03-21T19:09:27.634Z,101562.28
2019-03-21T19:12:10.768Z,101562.63
2019-03-21T19:14:53.307Z,101563.86
2019-03-21T19:17:29.709Z,101562.98
2019-03-21T19:20:06.834Z,101561.81
2019-03-21T19:22:41.614Z,101561.92
2019-03-21T19:25:19.825Z,101560.03
2019-03-21T19:27:55.542Z,101562.89
2019-03-21T19:30:31.960Z,101556.81
2019-03-21T19:33:09.115Z,101555.96
2019-03-21T19:35:46.917Z,101559.60
2019-03-21T19:38:26.188Z,101564.41
2019-03-21T19:41:04.454Z,101570.19
2019-03-21T19:43:39.403Z,101567.25
2019-03-21T19:46:14.255Z,101567.11
2019-03-21T19:48:51.910Z,101568.10
2019-03-21T19:51:27.179Z,101564.27
2019-03-21T19:54:03.626Z,101567.47
2019-03-21T19:56:38.650Z,101567.29
2019-03-21T19:59:21.586Z,101571.28
2019-03-21T20:01:57.851Z,101572.06
2019-03-21T20:04:34.122Z,101569.63
2019-03-21T20:07:10.882Z,101571.46
2019-03-21T20:09:45.630Z,101568.17
2019-03-21T20:12:24.307Z,101563.31
2019-03-21T20:15:00.852Z,101568.47
2019-03-21T20:17:40.068Z,101568.64
2019-03-21T20:20:15.842Z,101568.91
2019-03-21T20:22:53.301Z,101567.56
2019-03-21T20:25:42.307Z,101562.56
2019-03-21T20:28:18.738Z,101567.65
2019-03-21T20:30:53.779Z,101567.67
2019-03-21T20:33:29.018Z,101562.16
2019-03-21T20:36:14.503Z,101566.88
2019-03-21T20:38:51.627Z,101567.84
2019-03-21T20:41:27.029Z,101564.45
2019-03-21T20:44:14.624Z,101565.73
2019-03-21T20:46:52.106Z,101560.61
2019-03-21T20:49:28.762Z,101561.21
2019-03-21T20:52:04.415Z,101554.63
2019-03-21T20:54:42.531Z,101549.58
2019-03-21T20:57:17.249Z,101555.48
2019-03-21T20:59:51.931Z,101562.23
2019-03-21T21:02:29.569Z,101552.84
2019-03-21T21:05:09.451Z,101549.34
2019-03-21T21:07:44.336Z,101554.11
2019-03-21T21:10:30.601Z,101553.57
2019-03-21T21:13:07.379Z,101550.63
2019-03-21T21:15:41.984Z,101547.12
2019-03-21T21:18:21.384Z,101552.59
2019-03-21T21:20:56.883Z,101549.45
2019-03-21T21:23:34.260Z,101538.82
2019-03-21T21:26:10.748Z,101536.89
2019-03-21T21:28:47.158Z,101534.32
2019-03-21T21:31:25.982Z,101538.13
2019-03-21T21:34:02.834Z,101532.56
2019-03-21T21:36:38.952Z,101535.44
2019-03-21T21:39:16.183Z,101537.46
2019-03-21T21:41:51.143Z,101541.58
2019-03-21T21:44:30.981Z,101538.25
2019-03-21T21:47:08.826Z,101537.12
2019-03-21T21:49:44.006Z,101537.72
2019-03-21T21:52:24.083Z,101534.80
2019-03-21T21:54:59.500Z,101539.58
2019-03-21T21:57:35.308Z,101541.55
2019-03-21T22:00:14.879Z,101538.42
2019-03-21T22:02:50.083Z,101536.03
2019-03-21T22:05:25.933Z,101533.17
2019-03-21T22:08:03.938Z,101536.33
2019-03-21T22:10:39.033Z,101540.62
2019-03-21T22:13:16.195Z,101538.22
2019-03-21T22:15:51.247Z,101537.47
2019-03-21T22:18:26.546Z,101535.20
2019-03-21T22:21:01.843Z,101535.02
2019-03-21T22:23:37.142Z,101530.88
2019-03-21T22:26:14.689Z,101530.22
2019-03-21T22:28:53.340Z,101535.09
2019-03-21T22:31:27.805Z,101535.35
2019-03-21T22:34:03.742Z,101536.48
2019-03-21T22:36:49.299Z,101534.03
2019-03-21T22:39:24.952Z,101531.69
2019-03-21T22:42:00.079Z,101528.34
2019-03-21T22:44:35.803Z,101527.52
2019-03-21T22:47:10.922Z,101521.53
2019-03-21T22:49:55.909Z,101517.56
2019-03-21T22:52:31.864Z,101518.14
2019-03-21T22:55:09.999Z,101508.73
2019-03-21T22:57:49.801Z,101503.47
2019-03-21T23:00:40.930Z,101502.62
2019-03-21T23:03:17.737Z,101508.39
2019-03-21T23:05:53.721Z,101509.87
2019-03-21T23:08:32.507Z,101508.22
2019-03-21T23:11:10.434Z,101506.38
2019-03-21T23:13:47.775Z,101509.41
2019-03-21T23:16:27.819Z,101506.31
2019-03-21T23:19:04.495Z,101501.30
2019-03-21T23:21:39.286Z,101502.73
2019-03-21T23:24:14.257Z,101504.89
2019-03-21T23:26:53.025Z,101503.67
2019-03-21T23:29:28.026Z,101502.98
2019-03-21T23:32:07.710Z,101498.89
2019-03-21T23:34:52.938Z,101499.62
2019-03-21T23:37:27.734Z,101494.32
2019-03-21T23:40:03.718Z,101491.13
2019-03-21T23:42:40.354Z,101493.00
2019-03-21T23:45:19.719Z,101490.43
2019-03-21T23:47:54.851Z,101489.62
2019-03-21T23:50:30.244Z,101492.31
2019-03-21T23:53:06.705Z,101487.28
2019-03-21T23:55:41.941Z,101483.06
2019-03-21T23:58:17.402Z,101480.98
